Terminal Aerodrome Forecast
Issued by NWS

Current Version | Previous Version | Graphics & Text | Print | Product List | Glossary On
Versions: 1 2 3 4 5 6 7 8 9 10 11 12 13 14 15 16 17 18 19 20 21 22
000
FTUS41 KPBZ 240800 AAA
TAFHLG
TAF AMD
KHLG 240840Z 2409/2506 19015G27KT P6SM OVC045
     FM241600 20020G45KT P6SM BKN050
     FM242200 24017G30KT P6SM BKN050=

USA.gov is the U.S. government's official web portal to all federal, state and local government web resources and services.